CFG9VK EDDH-LGSA
Flight info
| Callsign | CFG9VK |
|---|---|
| Flight time | 2h 56m |
| Altitude | 37000 |
| Route | AMLUH2G AMLUH M852 DENIX DCT ZUCKA DCT ALOSO DCT ARMUT DCT LULAR DCT DEXIT DCT NURMI DCT OBUTI DCT LURID DCT ENFAR DCT BITLA UN132 ROPOX UM749 ATV UP169 MANOK L612 RUSOS |
| Aircraft | A320/M-SDE3FGHIRWY/LB1 |
Departure
| Time | 2026-04-26 10:14 |
|---|---|
| Airport | Hamburg Helmut Schmidt Airport (EDDH) |
Arrival
| Time | 2026-04-26 13:10 |
|---|---|
| Airport | Chania International Airport (LGSA) |
| Time | Latitude | Longitude | Altitude | Speed | Heading |
|---|---|---|---|---|---|
| 2026-04-26 09:57 | 53.63292 | 10.00361 | 49 ft | 0 kts | 87° |
| 2026-04-26 10:08 | 53.63292 | 10.00346 | 48 ft | 4 kts | 86° |
| 2026-04-26 10:08 | 53.63289 | 10.00301 | 48 ft | 4 kts | 85° |
| 2026-04-26 10:09 | 53.63289 | 10.00257 | 48 ft | 4 kts | 107° |
| 2026-04-26 10:09 | 53.63295 | 10.00233 | 47 ft | 4 kts | 123° |
| 2026-04-26 10:09 | 53.63313 | 10.00204 | 47 ft | 4 kts | 165° |
| 2026-04-26 10:09 | 53.63336 | 10.00199 | 48 ft | 1 kts | 176° |
| 2026-04-26 10:10 | 53.63314 | 10.00201 | 47 ft | 9 kts | 176° |
| 2026-04-26 10:11 | 53.63248 | 10.00209 | 48 ft | 9 kts | 175° |
| 2026-04-26 10:11 | 53.63186 | 10.00217 | 48 ft | 11 kts | 175° |
| 2026-04-26 10:11 | 53.63092 | 10.00229 | 48 ft | 16 kts | 177° |
| 2026-04-26 10:11 | 53.63000 | 10.00149 | 47 ft | 14 kts | 213° |
| 2026-04-26 10:12 | 53.62920 | 10.00063 | 46 ft | 13 kts | 213° |
| 2026-04-26 10:12 | 53.62844 | 9.99960 | 45 ft | 15 kts | 239° |
| 2026-04-26 10:12 | 53.62813 | 9.99800 | 45 ft | 14 kts | 293° |
| 2026-04-26 10:12 | 53.62856 | 9.99756 | 43 ft | 0 kts | 333° |
| 2026-04-26 10:13 | 53.62875 | 9.99739 | 45 ft | 21 kts | 333° |
| 2026-04-26 10:13 | 53.63238 | 9.99430 | 47 ft | 93 kts | 333° |
| 2026-04-26 10:13 | 53.63992 | 9.98780 | 51 ft | 148 kts | 332° |
| 2026-04-26 10:13 | 53.64995 | 9.97905 | 381 ft | 167 kts | 333° |
| 2026-04-26 10:14 | 53.66049 | 9.96978 | 1070 ft | 174 kts | 333° |
| 2026-04-26 10:14 | 53.67137 | 9.96028 | 1806 ft | 178 kts | 335° |
| 2026-04-26 10:14 | 53.68265 | 9.95092 | 2440 ft | 188 kts | 337° |
| 2026-04-26 10:14 | 53.69592 | 9.94551 | 2882 ft | 205 kts | 3° |
| 2026-04-26 10:15 | 53.71059 | 9.94632 | 3440 ft | 218 kts | 2° |
| 2026-04-26 10:15 | 53.72511 | 9.95148 | 4368 ft | 215 kts | 30° |
| 2026-04-26 10:15 | 53.73469 | 9.97051 | 5144 ft | 222 kts | 67° |
| 2026-04-26 10:15 | 53.73909 | 9.99568 | 5929 ft | 222 kts | 72° |
| 2026-04-26 10:16 | 53.74226 | 10.02164 | 6643 ft | 231 kts | 85° |
| 2026-04-26 10:16 | 53.73897 | 10.04880 | 7252 ft | 248 kts | 111° |
| 2026-04-26 10:16 | 53.72995 | 10.07562 | 7512 ft | 277 kts | 118° |
| 2026-04-26 10:16 | 53.71964 | 10.10476 | 7841 ft | 301 kts | 118° |
| 2026-04-26 10:17 | 53.70859 | 10.13591 | 8471 ft | 310 kts | 118° |
| 2026-04-26 10:17 | 53.69768 | 10.16681 | 9591 ft | 303 kts | 120° |
| 2026-04-26 10:17 | 53.68377 | 10.19457 | 10214 ft | 319 kts | 139° |
| 2026-04-26 10:17 | 53.66477 | 10.21460 | 10854 ft | 326 kts | 155° |
| 2026-04-26 10:18 | 53.64298 | 10.22819 | 11240 ft | 343 kts | 163° |
| 2026-04-26 10:18 | 53.61926 | 10.23952 | 11415 ft | 366 kts | 166° |
| 2026-04-26 10:18 | 53.59403 | 10.25004 | 11870 ft | 378 kts | 168° |
| 2026-04-26 10:18 | 53.56832 | 10.26042 | 12510 ft | 384 kts | 167° |
| 2026-04-26 10:19 | 53.54221 | 10.27125 | 13156 ft | 388 kts | 167° |
| 2026-04-26 10:19 | 53.51590 | 10.28262 | 13842 ft | 393 kts | 166° |
| 2026-04-26 10:19 | 53.48933 | 10.29447 | 14453 ft | 397 kts | 166° |
| 2026-04-26 10:19 | 53.46249 | 10.30669 | 15049 ft | 401 kts | 166° |
| 2026-04-26 10:20 | 53.43551 | 10.31911 | 15639 ft | 404 kts | 166° |
| 2026-04-26 10:20 | 53.40826 | 10.33165 | 16253 ft | 407 kts | 166° |
| 2026-04-26 10:20 | 53.38081 | 10.34418 | 16808 ft | 412 kts | 166° |
| 2026-04-26 10:20 | 53.35293 | 10.35683 | 17357 ft | 417 kts | 167° |
| 2026-04-26 10:21 | 53.32488 | 10.36943 | 17939 ft | 420 kts | 167° |
| 2026-04-26 10:21 | 53.29676 | 10.38195 | 18528 ft | 424 kts | 167° |
| 2026-04-26 10:21 | 53.26783 | 10.39483 | 19058 ft | 426 kts | 167° |
| 2026-04-26 10:21 | 53.23949 | 10.40747 | 19597 ft | 428 kts | 167° |
| 2026-04-26 10:22 | 53.21061 | 10.42041 | 20137 ft | 431 kts | 167° |
| 2026-04-26 10:22 | 53.18161 | 10.43343 | 20678 ft | 433 kts | 167° |
| 2026-04-26 10:22 | 53.15243 | 10.44647 | 21208 ft | 436 kts | 167° |
| 2026-04-26 10:22 | 53.12297 | 10.45931 | 21724 ft | 438 kts | 169° |
| 2026-04-26 10:23 | 53.09315 | 10.47045 | 22221 ft | 440 kts | 171° |
| 2026-04-26 10:23 | 53.06295 | 10.48003 | 22724 ft | 442 kts | 173° |
| 2026-04-26 10:23 | 53.03259 | 10.48873 | 23209 ft | 444 kts | 173° |
| 2026-04-26 10:23 | 53.00198 | 10.49730 | 23683 ft | 447 kts | 173° |
| 2026-04-26 10:24 | 52.97129 | 10.50607 | 24103 ft | 449 kts | 173° |
| 2026-04-26 10:24 | 52.94046 | 10.51519 | 24493 ft | 451 kts | 173° |
| 2026-04-26 10:24 | 52.90949 | 10.52469 | 24876 ft | 453 kts | 172° |
| 2026-04-26 10:24 | 52.87846 | 10.53435 | 25244 ft | 455 kts | 172° |
| 2026-04-26 10:25 | 52.84731 | 10.54409 | 25628 ft | 456 kts | 172° |
| 2026-04-26 10:25 | 52.81606 | 10.55383 | 25996 ft | 458 kts | 172° |
| 2026-04-26 10:25 | 52.78471 | 10.56358 | 26357 ft | 459 kts | 172° |
| 2026-04-26 10:25 | 52.75327 | 10.57329 | 26735 ft | 459 kts | 172° |
| 2026-04-26 10:26 | 52.72223 | 10.58282 | 27102 ft | 460 kts | 172° |
| 2026-04-26 10:26 | 52.69067 | 10.59246 | 27457 ft | 462 kts | 173° |
| 2026-04-26 10:26 | 52.65886 | 10.60214 | 27713 ft | 466 kts | 173° |
| 2026-04-26 10:26 | 52.62696 | 10.61187 | 28021 ft | 468 kts | 173° |
| 2026-04-26 10:27 | 52.59484 | 10.62171 | 28335 ft | 470 kts | 173° |
| 2026-04-26 10:27 | 52.56266 | 10.63157 | 28654 ft | 471 kts | 173° |
| 2026-04-26 10:27 | 52.53036 | 10.64143 | 28962 ft | 472 kts | 173° |
| 2026-04-26 10:27 | 52.49802 | 10.65122 | 29297 ft | 472 kts | 173° |
| 2026-04-26 10:28 | 52.46575 | 10.66097 | 29624 ft | 472 kts | 173° |
| 2026-04-26 10:28 | 52.43341 | 10.67076 | 29911 ft | 473 kts | 173° |
| 2026-04-26 10:28 | 52.40095 | 10.68058 | 30177 ft | 475 kts | 173° |
| 2026-04-26 10:28 | 52.36843 | 10.69040 | 30439 ft | 476 kts | 173° |
| 2026-04-26 10:29 | 52.33584 | 10.70022 | 30702 ft | 475 kts | 173° |
| 2026-04-26 10:29 | 52.30333 | 10.70997 | 30989 ft | 474 kts | 173° |
| 2026-04-26 10:29 | 52.27135 | 10.71955 | 31245 ft | 473 kts | 172° |
| 2026-04-26 10:29 | 52.23865 | 10.72939 | 31598 ft | 470 kts | 172° |
| 2026-04-26 10:30 | 52.20693 | 10.73898 | 31910 ft | 469 kts | 172° |
| 2026-04-26 10:30 | 52.17490 | 10.74866 | 32208 ft | 468 kts | 172° |
| 2026-04-26 10:30 | 52.14296 | 10.75820 | 32502 ft | 467 kts | 172° |
| 2026-04-26 10:30 | 52.11103 | 10.76765 | 32782 ft | 466 kts | 172° |
| 2026-04-26 10:31 | 52.07916 | 10.77708 | 33060 ft | 465 kts | 172° |
| 2026-04-26 10:31 | 52.04738 | 10.78653 | 33339 ft | 464 kts | 172° |
| 2026-04-26 10:31 | 52.01561 | 10.79596 | 33601 ft | 463 kts | 172° |
| 2026-04-26 10:31 | 51.98402 | 10.80532 | 33929 ft | 461 kts | 172° |
| 2026-04-26 10:32 | 51.95248 | 10.81464 | 34214 ft | 461 kts | 172° |
| 2026-04-26 10:32 | 51.92088 | 10.82396 | 34434 ft | 461 kts | 172° |
| 2026-04-26 10:32 | 51.88929 | 10.83325 | 34658 ft | 461 kts | 172° |
| 2026-04-26 10:32 | 51.85766 | 10.84255 | 34887 ft | 461 kts | 172° |
| 2026-04-26 10:33 | 51.82615 | 10.85180 | 35113 ft | 460 kts | 172° |
| 2026-04-26 10:33 | 51.79458 | 10.86109 | 35342 ft | 460 kts | 172° |
| 2026-04-26 10:33 | 51.76314 | 10.87037 | 35569 ft | 459 kts | 172° |
| 2026-04-26 10:33 | 51.73176 | 10.87964 | 35823 ft | 457 kts | 172° |
| 2026-04-26 10:34 | 51.70052 | 10.88892 | 36050 ft | 456 kts | 170° |
| 2026-04-26 10:34 | 51.67037 | 10.90266 | 36255 ft | 458 kts | 161° |
| 2026-04-26 10:34 | 51.64121 | 10.92394 | 36444 ft | 460 kts | 154° |
| 2026-04-26 10:34 | 51.61297 | 10.94809 | 36618 ft | 460 kts | 154° |
| 2026-04-26 10:35 | 51.58468 | 10.97226 | 36793 ft | 460 kts | 154° |
| 2026-04-26 10:35 | 51.55646 | 10.99627 | 36968 ft | 459 kts | 154° |
| 2026-04-26 10:35 | 51.52816 | 11.02027 | 37151 ft | 459 kts | 154° |
| 2026-04-26 10:35 | 51.50003 | 11.04411 | 37270 ft | 457 kts | 154° |
| 2026-04-26 10:36 | 51.44374 | 11.09170 | 37301 ft | 456 kts | 154° |
| 2026-04-26 10:36 | 51.38717 | 11.13930 | 37296 ft | 459 kts | 154° |
| 2026-04-26 10:37 | 51.33089 | 11.18655 | 37297 ft | 460 kts | 154° |
| 2026-04-26 10:37 | 51.27425 | 11.23414 | 37286 ft | 460 kts | 154° |
| 2026-04-26 10:38 | 51.21759 | 11.28158 | 37298 ft | 459 kts | 154° |
| 2026-04-26 10:38 | 51.16087 | 11.32873 | 37305 ft | 459 kts | 154° |
| 2026-04-26 10:39 | 51.10426 | 11.37569 | 37309 ft | 459 kts | 154° |
| 2026-04-26 10:39 | 51.04769 | 11.42262 | 37307 ft | 458 kts | 154° |
| 2026-04-26 10:40 | 50.99100 | 11.46945 | 37289 ft | 459 kts | 154° |
| 2026-04-26 10:40 | 50.93432 | 11.51606 | 37297 ft | 458 kts | 154° |
| 2026-04-26 10:41 | 50.87805 | 11.56229 | 37302 ft | 458 kts | 154° |
| 2026-04-26 10:41 | 50.82148 | 11.60874 | 37300 ft | 458 kts | 154° |
| 2026-04-26 10:42 | 50.76488 | 11.65490 | 37299 ft | 458 kts | 154° |
| 2026-04-26 10:42 | 50.70826 | 11.70068 | 37288 ft | 456 kts | 158° |
| 2026-04-26 10:43 | 50.64979 | 11.73887 | 37293 ft | 454 kts | 160° |
| 2026-04-26 10:43 | 50.59125 | 11.77646 | 37290 ft | 454 kts | 160° |
| 2026-04-26 10:44 | 50.53267 | 11.81402 | 37293 ft | 455 kts | 160° |
| 2026-04-26 10:44 | 50.47407 | 11.85144 | 37294 ft | 455 kts | 160° |
| 2026-04-26 10:45 | 50.41543 | 11.88882 | 37295 ft | 455 kts | 160° |
| 2026-04-26 10:45 | 50.35677 | 11.92620 | 37298 ft | 455 kts | 160° |
| 2026-04-26 10:46 | 50.29810 | 11.96341 | 37302 ft | 455 kts | 160° |
| 2026-04-26 10:46 | 50.23944 | 12.00055 | 37291 ft | 455 kts | 160° |
| 2026-04-26 10:47 | 50.18075 | 12.03762 | 37293 ft | 455 kts | 160° |
| 2026-04-26 10:47 | 50.12237 | 12.07422 | 37285 ft | 455 kts | 160° |
| 2026-04-26 10:48 | 50.06361 | 12.11107 | 37286 ft | 455 kts | 160° |
| 2026-04-26 10:48 | 50.00484 | 12.14783 | 37254 ft | 455 kts | 160° |
| 2026-04-26 10:49 | 49.94611 | 12.18460 | 37263 ft | 455 kts | 160° |
| 2026-04-26 10:49 | 49.88738 | 12.22117 | 37269 ft | 455 kts | 160° |
| 2026-04-26 10:50 | 49.83847 | 12.25143 | 37267 ft | 455 kts | 161° |
| 2026-04-26 10:50 | 49.76981 | 12.29381 | 37276 ft | 455 kts | 160° |
| 2026-04-26 10:51 | 49.68743 | 12.36657 | 37249 ft | 460 kts | 143° |
| 2026-04-26 10:52 | 49.63744 | 12.42837 | 37248 ft | 460 kts | 143° |
| 2026-04-26 10:52 | 49.58719 | 12.48966 | 37250 ft | 461 kts | 143° |
| 2026-04-26 10:53 | 49.53682 | 12.55097 | 37253 ft | 461 kts | 143° |
| 2026-04-26 10:53 | 49.48652 | 12.61228 | 37247 ft | 461 kts | 143° |
| 2026-04-26 10:54 | 49.41105 | 12.70409 | 37253 ft | 461 kts | 143° |
| 2026-04-26 10:54 | 49.36134 | 12.76640 | 37257 ft | 463 kts | 137° |
| 2026-04-26 10:55 | 49.31663 | 12.83757 | 37253 ft | 463 kts | 135° |
| 2026-04-26 10:55 | 49.27950 | 12.89702 | 37255 ft | 464 kts | 135° |
| 2026-04-26 10:56 | 49.22765 | 12.97977 | 37238 ft | 464 kts | 135° |
| 2026-04-26 10:56 | 49.19013 | 13.03942 | 37247 ft | 464 kts | 135° |
| 2026-04-26 10:57 | 49.14542 | 13.11034 | 37253 ft | 463 kts | 135° |
| 2026-04-26 10:57 | 49.10066 | 13.18106 | 37264 ft | 463 kts | 136° |
| 2026-04-26 10:58 | 49.05585 | 13.25169 | 37259 ft | 463 kts | 136° |
| 2026-04-26 10:58 | 49.01105 | 13.32225 | 37234 ft | 463 kts | 136° |
| 2026-04-26 10:59 | 48.96644 | 13.39225 | 37244 ft | 463 kts | 136° |
| 2026-04-26 10:59 | 48.92126 | 13.46289 | 37233 ft | 463 kts | 136° |
| 2026-04-26 11:00 | 48.87625 | 13.53298 | 37232 ft | 463 kts | 136° |
| 2026-04-26 11:00 | 48.83153 | 13.60254 | 37239 ft | 463 kts | 136° |
| 2026-04-26 11:01 | 48.78650 | 13.67243 | 37234 ft | 463 kts | 136° |
| 2026-04-26 11:01 | 48.73857 | 13.73718 | 37236 ft | 461 kts | 144° |
| 2026-04-26 11:02 | 48.68736 | 13.79600 | 37215 ft | 461 kts | 144° |
| 2026-04-26 11:02 | 48.63618 | 13.85466 | 37234 ft | 462 kts | 144° |
| 2026-04-26 11:03 | 48.58499 | 13.91321 | 37229 ft | 461 kts | 144° |
| 2026-04-26 11:03 | 48.53375 | 13.97175 | 37242 ft | 462 kts | 144° |
| 2026-04-26 11:04 | 48.48247 | 14.03010 | 37237 ft | 462 kts | 144° |
| 2026-04-26 11:04 | 48.43114 | 14.08842 | 37215 ft | 462 kts | 144° |
| 2026-04-26 11:05 | 48.37968 | 14.14679 | 37219 ft | 462 kts | 144° |
| 2026-04-26 11:05 | 48.32824 | 14.20491 | 37217 ft | 463 kts | 144° |
| 2026-04-26 11:06 | 48.27710 | 14.26255 | 37220 ft | 463 kts | 145° |
| 2026-04-26 11:06 | 48.22552 | 14.32042 | 37223 ft | 463 kts | 144° |
| 2026-04-26 11:07 | 48.17391 | 14.37827 | 37210 ft | 463 kts | 144° |
| 2026-04-26 11:07 | 48.12232 | 14.43604 | 37218 ft | 463 kts | 144° |
| 2026-04-26 11:08 | 48.07066 | 14.49368 | 37229 ft | 463 kts | 145° |
| 2026-04-26 11:08 | 48.01894 | 14.55114 | 37235 ft | 463 kts | 145° |
| 2026-04-26 11:09 | 47.96727 | 14.60852 | 37239 ft | 463 kts | 145° |
| 2026-04-26 11:09 | 47.91548 | 14.66580 | 37236 ft | 463 kts | 145° |
| 2026-04-26 11:10 | 47.86368 | 14.72290 | 37228 ft | 463 kts | 145° |
| 2026-04-26 11:10 | 47.81185 | 14.78012 | 37228 ft | 463 kts | 145° |
| 2026-04-26 11:11 | 47.76003 | 14.83715 | 37215 ft | 463 kts | 145° |
| 2026-04-26 11:11 | 47.70809 | 14.89390 | 37213 ft | 464 kts | 145° |
| 2026-04-26 11:12 | 47.65604 | 14.95058 | 37183 ft | 465 kts | 146° |
| 2026-04-26 11:12 | 47.60363 | 15.00673 | 37188 ft | 465 kts | 147° |
| 2026-04-26 11:13 | 47.55096 | 15.06239 | 37178 ft | 465 kts | 147° |
| 2026-04-26 11:13 | 47.49832 | 15.11811 | 37199 ft | 465 kts | 146° |
| 2026-04-26 11:14 | 47.44578 | 15.17368 | 37191 ft | 464 kts | 146° |
| 2026-04-26 11:14 | 47.39330 | 15.22906 | 37184 ft | 463 kts | 146° |
| 2026-04-26 11:15 | 47.34125 | 15.28396 | 37174 ft | 463 kts | 146° |
| 2026-04-26 11:15 | 47.28884 | 15.33898 | 37173 ft | 462 kts | 146° |
| 2026-04-26 11:16 | 47.23648 | 15.39389 | 37155 ft | 462 kts | 146° |
| 2026-04-26 11:16 | 47.18406 | 15.44871 | 37166 ft | 462 kts | 146° |
| 2026-04-26 11:17 | 47.13164 | 15.50328 | 37137 ft | 462 kts | 146° |
| 2026-04-26 11:17 | 47.07907 | 15.55789 | 37139 ft | 462 kts | 146° |
| 2026-04-26 11:18 | 47.02654 | 15.61242 | 37141 ft | 463 kts | 146° |
| 2026-04-26 11:18 | 46.97402 | 15.66696 | 37141 ft | 463 kts | 146° |
| 2026-04-26 11:19 | 46.92137 | 15.72134 | 37145 ft | 463 kts | 146° |
| 2026-04-26 11:19 | 46.86858 | 15.77553 | 37129 ft | 464 kts | 146° |
| 2026-04-26 11:20 | 46.82458 | 15.82057 | 37124 ft | 465 kts | 146° |
| 2026-04-26 11:20 | 46.76255 | 15.88408 | 37135 ft | 466 kts | 146° |
| 2026-04-26 11:21 | 46.70950 | 15.93842 | 37145 ft | 466 kts | 146° |
| 2026-04-26 11:21 | 46.65670 | 15.99234 | 37139 ft | 466 kts | 146° |
| 2026-04-26 11:22 | 46.60354 | 16.04648 | 37155 ft | 466 kts | 146° |
| 2026-04-26 11:22 | 46.55030 | 16.10045 | 37163 ft | 466 kts | 146° |
| 2026-04-26 11:23 | 46.49705 | 16.15426 | 37165 ft | 466 kts | 146° |
| 2026-04-26 11:23 | 46.44376 | 16.20810 | 37168 ft | 466 kts | 146° |
| 2026-04-26 11:24 | 46.39052 | 16.26180 | 37170 ft | 466 kts | 146° |
| 2026-04-26 11:24 | 46.33668 | 16.31420 | 37170 ft | 466 kts | 148° |
| 2026-04-26 11:25 | 46.28197 | 16.36435 | 37171 ft | 465 kts | 149° |
| 2026-04-26 11:25 | 46.22710 | 16.41413 | 37172 ft | 465 kts | 149° |
| 2026-04-26 11:26 | 46.17243 | 16.46427 | 37160 ft | 465 kts | 148° |
| 2026-04-26 11:26 | 46.11788 | 16.51468 | 37170 ft | 465 kts | 148° |
| 2026-04-26 11:27 | 46.06338 | 16.56487 | 37170 ft | 465 kts | 148° |
| 2026-04-26 11:27 | 46.00875 | 16.61484 | 37171 ft | 465 kts | 148° |
| 2026-04-26 11:28 | 45.95415 | 16.66480 | 37165 ft | 465 kts | 148° |
| 2026-04-26 11:28 | 45.89988 | 16.71435 | 37160 ft | 465 kts | 148° |
| 2026-04-26 11:29 | 45.84520 | 16.76409 | 37165 ft | 465 kts | 148° |
| 2026-04-26 11:29 | 45.79054 | 16.81365 | 37163 ft | 465 kts | 148° |
| 2026-04-26 11:30 | 45.74511 | 16.85481 | 37161 ft | 465 kts | 148° |
| 2026-04-26 11:30 | 45.68110 | 16.91261 | 37143 ft | 465 kts | 149° |
| 2026-04-26 11:31 | 45.62636 | 16.96180 | 37147 ft | 465 kts | 149° |
| 2026-04-26 11:31 | 45.57154 | 17.01107 | 37157 ft | 465 kts | 149° |
| 2026-04-26 11:32 | 45.51677 | 17.06020 | 37151 ft | 465 kts | 149° |
| 2026-04-26 11:32 | 45.46196 | 17.10927 | 37151 ft | 465 kts | 149° |
| 2026-04-26 11:33 | 45.40715 | 17.15819 | 37146 ft | 465 kts | 149° |
| 2026-04-26 11:33 | 45.35263 | 17.20677 | 37146 ft | 465 kts | 149° |
| 2026-04-26 11:34 | 45.29779 | 17.25554 | 37149 ft | 465 kts | 149° |
| 2026-04-26 11:34 | 45.24289 | 17.30423 | 37137 ft | 465 kts | 149° |
| 2026-04-26 11:35 | 45.18801 | 17.35281 | 37138 ft | 465 kts | 149° |
| 2026-04-26 11:35 | 45.14200 | 17.39339 | 37140 ft | 465 kts | 149° |
| 2026-04-26 11:36 | 45.07938 | 17.45218 | 37142 ft | 465 kts | 145° |
| 2026-04-26 11:36 | 45.02695 | 17.50595 | 37143 ft | 465 kts | 144° |
| 2026-04-26 11:37 | 44.97448 | 17.55951 | 37144 ft | 465 kts | 145° |
| 2026-04-26 11:37 | 44.92161 | 17.61204 | 37146 ft | 464 kts | 146° |
| 2026-04-26 11:38 | 44.86855 | 17.66405 | 37146 ft | 464 kts | 146° |
| 2026-04-26 11:38 | 44.82451 | 17.70722 | 37147 ft | 464 kts | 146° |
| 2026-04-26 11:39 | 44.77148 | 17.75928 | 37151 ft | 464 kts | 146° |
| 2026-04-26 11:39 | 44.71850 | 17.81137 | 37145 ft | 464 kts | 146° |
| 2026-04-26 11:40 | 44.66561 | 17.86328 | 37150 ft | 464 kts | 146° |
| 2026-04-26 11:40 | 44.61262 | 17.91500 | 37150 ft | 464 kts | 146° |
| 2026-04-26 11:42 | 44.40093 | 18.12070 | 37145 ft | 464 kts | 146° |
| 2026-04-26 11:43 | 44.34788 | 18.17191 | 37142 ft | 464 kts | 146° |
| 2026-04-26 11:43 | 44.29481 | 18.22314 | 37141 ft | 464 kts | 146° |
| 2026-04-26 11:44 | 44.24165 | 18.27425 | 37138 ft | 464 kts | 146° |
| 2026-04-26 11:44 | 44.18857 | 18.32515 | 37129 ft | 457 kts | 146° |
| 2026-04-26 11:45 | 44.16268 | 18.34995 | 37135 ft | 444 kts | 146° |
| 2026-04-26 11:45 | 44.13757 | 18.37401 | 37132 ft | 434 kts | 146° |
| 2026-04-26 11:45 | 44.08821 | 18.42119 | 37124 ft | 429 kts | 147° |
| 2026-04-26 11:46 | 44.03908 | 18.46798 | 37124 ft | 427 kts | 147° |
| 2026-04-26 11:46 | 43.99029 | 18.51432 | 37121 ft | 427 kts | 147° |
| 2026-04-26 11:47 | 43.94129 | 18.56088 | 37120 ft | 427 kts | 147° |
| 2026-04-26 11:47 | 43.89224 | 18.60742 | 37121 ft | 427 kts | 147° |
| 2026-04-26 11:48 | 43.84321 | 18.65378 | 37119 ft | 427 kts | 147° |
| 2026-04-26 11:48 | 43.79411 | 18.70011 | 37115 ft | 427 kts | 147° |
| 2026-04-26 11:49 | 43.74502 | 18.74635 | 37115 ft | 427 kts | 147° |
| 2026-04-26 11:49 | 43.69590 | 18.79247 | 37114 ft | 427 kts | 147° |
| 2026-04-26 11:50 | 43.64682 | 18.83853 | 37113 ft | 427 kts | 147° |
| 2026-04-26 11:50 | 43.59768 | 18.88461 | 37111 ft | 429 kts | 147° |
| 2026-04-26 11:51 | 43.54791 | 18.93104 | 37116 ft | 441 kts | 147° |
| 2026-04-26 11:51 | 43.49641 | 18.97902 | 37111 ft | 452 kts | 147° |
| 2026-04-26 11:52 | 43.44369 | 19.02810 | 37115 ft | 462 kts | 147° |
| 2026-04-26 11:52 | 43.38990 | 19.07804 | 37107 ft | 470 kts | 147° |
| 2026-04-26 11:53 | 43.33530 | 19.12864 | 37108 ft | 476 kts | 148° |
| 2026-04-26 11:54 | 43.25240 | 19.20515 | 37104 ft | 480 kts | 148° |
| 2026-04-26 11:54 | 43.19687 | 19.25627 | 37106 ft | 481 kts | 148° |
| 2026-04-26 11:55 | 43.14122 | 19.30741 | 37114 ft | 481 kts | 148° |
| 2026-04-26 11:55 | 43.08588 | 19.35811 | 37112 ft | 481 kts | 148° |
| 2026-04-26 11:56 | 43.03018 | 19.40911 | 37115 ft | 482 kts | 148° |
| 2026-04-26 11:56 | 42.97450 | 19.46011 | 37123 ft | 482 kts | 148° |
| 2026-04-26 11:57 | 42.91878 | 19.51102 | 37094 ft | 482 kts | 148° |
| 2026-04-26 11:57 | 42.86280 | 19.56176 | 37091 ft | 483 kts | 148° |
| 2026-04-26 11:58 | 42.80677 | 19.61257 | 37093 ft | 484 kts | 148° |
| 2026-04-26 11:58 | 42.75069 | 19.66343 | 37105 ft | 484 kts | 148° |
| 2026-04-26 11:59 | 42.69486 | 19.71378 | 37100 ft | 484 kts | 148° |
| 2026-04-26 11:59 | 42.63868 | 19.76439 | 37094 ft | 485 kts | 148° |
| 2026-04-26 12:00 | 42.58240 | 19.81492 | 37091 ft | 484 kts | 148° |
| 2026-04-26 12:00 | 42.52616 | 19.86537 | 37095 ft | 485 kts | 148° |
| 2026-04-26 12:01 | 42.46976 | 19.91593 | 37095 ft | 486 kts | 148° |
| 2026-04-26 12:01 | 42.41341 | 19.96636 | 37075 ft | 486 kts | 149° |
| 2026-04-26 12:02 | 42.35693 | 20.01676 | 37080 ft | 486 kts | 149° |
| 2026-04-26 12:02 | 42.30041 | 20.06690 | 37085 ft | 486 kts | 149° |
| 2026-04-26 12:03 | 42.24379 | 20.11708 | 37083 ft | 487 kts | 149° |
| 2026-04-26 12:03 | 42.18721 | 20.16713 | 37078 ft | 487 kts | 149° |
| 2026-04-26 12:04 | 42.13096 | 20.21686 | 37081 ft | 487 kts | 149° |
| 2026-04-26 12:04 | 42.07427 | 20.26688 | 37081 ft | 487 kts | 149° |
| 2026-04-26 12:05 | 42.01750 | 20.31675 | 37081 ft | 487 kts | 149° |
| 2026-04-26 12:05 | 41.96082 | 20.36655 | 37079 ft | 487 kts | 149° |
| 2026-04-26 12:06 | 41.90407 | 20.41627 | 37084 ft | 487 kts | 149° |
| 2026-04-26 12:06 | 41.84732 | 20.46577 | 37088 ft | 486 kts | 149° |
| 2026-04-26 12:07 | 41.79053 | 20.51526 | 37084 ft | 486 kts | 149° |
| 2026-04-26 12:07 | 41.73443 | 20.56499 | 37075 ft | 487 kts | 148° |
| 2026-04-26 12:08 | 41.67896 | 20.61723 | 37073 ft | 487 kts | 147° |
| 2026-04-26 12:08 | 41.62371 | 20.66985 | 37076 ft | 487 kts | 147° |
| 2026-04-26 12:09 | 41.56824 | 20.72191 | 37067 ft | 487 kts | 147° |
| 2026-04-26 12:09 | 41.51264 | 20.77360 | 37057 ft | 487 kts | 148° |
| 2026-04-26 12:10 | 41.45709 | 20.82498 | 37074 ft | 487 kts | 148° |
| 2026-04-26 12:10 | 41.40140 | 20.87648 | 37077 ft | 487 kts | 148° |
| 2026-04-26 12:11 | 41.34613 | 20.92754 | 37080 ft | 487 kts | 148° |
| 2026-04-26 12:11 | 41.29049 | 20.97891 | 37080 ft | 487 kts | 148° |
| 2026-04-26 12:12 | 41.23483 | 21.03012 | 37072 ft | 486 kts | 148° |
| 2026-04-26 12:12 | 41.17915 | 21.08112 | 37071 ft | 486 kts | 148° |
| 2026-04-26 12:13 | 41.12352 | 21.13209 | 37063 ft | 486 kts | 148° |
| 2026-04-26 12:13 | 41.06788 | 21.18300 | 37060 ft | 486 kts | 148° |
| 2026-04-26 12:14 | 41.01211 | 21.23398 | 37047 ft | 486 kts | 148° |
| 2026-04-26 12:14 | 40.95633 | 21.28466 | 37056 ft | 486 kts | 148° |
| 2026-04-26 12:15 | 40.90048 | 21.33519 | 37064 ft | 486 kts | 148° |
| 2026-04-26 12:15 | 40.84480 | 21.38603 | 37067 ft | 486 kts | 147° |
| 2026-04-26 12:16 | 40.78960 | 21.43776 | 37066 ft | 487 kts | 147° |
| 2026-04-26 12:16 | 40.73446 | 21.48955 | 37068 ft | 487 kts | 147° |
| 2026-04-26 12:17 | 40.67914 | 21.54096 | 37061 ft | 486 kts | 147° |
| 2026-04-26 12:17 | 40.62372 | 21.59210 | 37053 ft | 486 kts | 147° |
| 2026-04-26 12:18 | 40.56862 | 21.64289 | 37057 ft | 486 kts | 147° |
| 2026-04-26 12:18 | 40.51318 | 21.69400 | 37061 ft | 486 kts | 147° |
| 2026-04-26 12:19 | 40.45784 | 21.74503 | 37059 ft | 486 kts | 147° |
| 2026-04-26 12:19 | 40.40243 | 21.79596 | 37074 ft | 486 kts | 147° |
| 2026-04-26 12:20 | 40.34695 | 21.84666 | 37076 ft | 486 kts | 147° |
| 2026-04-26 12:20 | 40.29145 | 21.89736 | 37075 ft | 486 kts | 147° |
| 2026-04-26 12:21 | 40.23591 | 21.94810 | 37065 ft | 486 kts | 147° |
| 2026-04-26 12:21 | 40.18049 | 21.99869 | 37064 ft | 486 kts | 147° |
| 2026-04-26 12:22 | 40.12494 | 22.04909 | 37057 ft | 486 kts | 147° |
| 2026-04-26 12:22 | 40.06939 | 22.09945 | 37043 ft | 485 kts | 147° |
| 2026-04-26 12:23 | 40.01427 | 22.14935 | 37045 ft | 486 kts | 147° |
| 2026-04-26 12:23 | 39.95871 | 22.19953 | 37048 ft | 486 kts | 147° |
| 2026-04-26 12:24 | 39.90312 | 22.24963 | 37040 ft | 486 kts | 147° |
| 2026-04-26 12:24 | 39.84753 | 22.29970 | 37035 ft | 485 kts | 147° |
| 2026-04-26 12:25 | 39.76438 | 22.37437 | 37036 ft | 485 kts | 147° |
| 2026-04-26 12:25 | 39.70875 | 22.42420 | 37036 ft | 485 kts | 147° |
| 2026-04-26 12:26 | 39.65318 | 22.47378 | 37053 ft | 485 kts | 147° |
| 2026-04-26 12:26 | 39.59751 | 22.52347 | 37049 ft | 485 kts | 147° |
| 2026-04-26 12:27 | 39.55088 | 22.56501 | 37035 ft | 485 kts | 147° |
| 2026-04-26 12:27 | 39.49556 | 22.61419 | 37036 ft | 485 kts | 146° |
| 2026-04-26 12:28 | 39.43984 | 22.66368 | 37045 ft | 485 kts | 146° |
| 2026-04-26 12:28 | 39.38408 | 22.71289 | 37050 ft | 485 kts | 147° |
| 2026-04-26 12:29 | 39.32832 | 22.76209 | 37049 ft | 485 kts | 146° |
| 2026-04-26 12:30 | 39.24467 | 22.83585 | 37032 ft | 485 kts | 146° |
| 2026-04-26 12:30 | 39.18890 | 22.88486 | 37043 ft | 485 kts | 146° |
| 2026-04-26 12:31 | 39.10516 | 22.95829 | 37029 ft | 486 kts | 146° |
| 2026-04-26 12:31 | 39.04921 | 23.00725 | 37025 ft | 486 kts | 146° |
| 2026-04-26 12:32 | 38.99325 | 23.05599 | 37038 ft | 486 kts | 146° |
| 2026-04-26 12:33 | 38.90936 | 23.12910 | 37056 ft | 486 kts | 146° |
| 2026-04-26 12:33 | 38.85372 | 23.17747 | 37043 ft | 486 kts | 146° |
| 2026-04-26 12:34 | 38.79760 | 23.22609 | 37047 ft | 486 kts | 146° |
| 2026-04-26 12:34 | 38.74151 | 23.27461 | 37048 ft | 486 kts | 146° |
| 2026-04-26 12:35 | 38.68538 | 23.32316 | 37044 ft | 486 kts | 146° |
| 2026-04-26 12:35 | 38.62930 | 23.37151 | 37047 ft | 486 kts | 146° |
| 2026-04-26 12:36 | 38.57303 | 23.41985 | 37048 ft | 486 kts | 146° |
| 2026-04-26 12:36 | 38.51681 | 23.46812 | 37054 ft | 486 kts | 146° |
| 2026-04-26 12:37 | 38.46100 | 23.51604 | 37033 ft | 487 kts | 146° |
| 2026-04-26 12:37 | 38.40482 | 23.56407 | 37038 ft | 486 kts | 146° |
| 2026-04-26 12:38 | 38.34850 | 23.61207 | 37038 ft | 487 kts | 146° |
| 2026-04-26 12:38 | 38.29224 | 23.65999 | 37035 ft | 487 kts | 146° |
| 2026-04-26 12:39 | 38.23593 | 23.70797 | 37029 ft | 487 kts | 146° |
| 2026-04-26 12:39 | 38.17769 | 23.75152 | 37024 ft | 487 kts | 157° |
| 2026-04-26 12:40 | 38.11248 | 23.77266 | 36526 ft | 483 kts | 174° |
| 2026-04-26 12:40 | 38.07908 | 23.77737 | 36066 ft | 482 kts | 174° |
| 2026-04-26 12:40 | 38.04571 | 23.78202 | 35614 ft | 483 kts | 174° |
| 2026-04-26 12:40 | 38.01226 | 23.78672 | 35171 ft | 484 kts | 174° |
| 2026-04-26 12:41 | 37.97877 | 23.79148 | 34735 ft | 485 kts | 173° |
| 2026-04-26 12:41 | 37.94517 | 23.79628 | 34324 ft | 486 kts | 173° |
| 2026-04-26 12:41 | 37.91153 | 23.80111 | 33877 ft | 488 kts | 173° |
| 2026-04-26 12:41 | 37.87772 | 23.80599 | 33387 ft | 489 kts | 173° |
| 2026-04-26 12:42 | 37.84390 | 23.81114 | 32906 ft | 490 kts | 172° |
| 2026-04-26 12:42 | 37.81002 | 23.81663 | 32433 ft | 492 kts | 172° |
| 2026-04-26 12:42 | 37.77605 | 23.82231 | 31967 ft | 493 kts | 172° |
| 2026-04-26 12:42 | 37.74201 | 23.82802 | 31512 ft | 494 kts | 172° |
| 2026-04-26 12:43 | 37.70784 | 23.83369 | 31058 ft | 496 kts | 172° |
| 2026-04-26 12:43 | 37.67403 | 23.83918 | 30622 ft | 497 kts | 172° |
| 2026-04-26 12:43 | 37.63969 | 23.84470 | 30186 ft | 498 kts | 172° |
| 2026-04-26 12:43 | 37.60528 | 23.85021 | 29702 ft | 499 kts | 172° |
| 2026-04-26 12:44 | 37.57076 | 23.85569 | 29199 ft | 500 kts | 172° |
| 2026-04-26 12:44 | 37.53621 | 23.86117 | 28705 ft | 501 kts | 172° |
| 2026-04-26 12:44 | 37.50158 | 23.86670 | 28222 ft | 502 kts | 172° |
| 2026-04-26 12:44 | 37.46701 | 23.87223 | 27745 ft | 499 kts | 172° |
| 2026-04-26 12:45 | 37.43269 | 23.87774 | 27279 ft | 496 kts | 172° |
| 2026-04-26 12:45 | 37.39861 | 23.88319 | 26818 ft | 492 kts | 172° |
| 2026-04-26 12:45 | 37.36477 | 23.88858 | 26365 ft | 488 kts | 172° |
| 2026-04-26 12:45 | 37.33114 | 23.89389 | 25922 ft | 485 kts | 172° |
| 2026-04-26 12:46 | 37.29781 | 23.89916 | 25484 ft | 481 kts | 172° |
| 2026-04-26 12:46 | 37.26468 | 23.90443 | 25053 ft | 478 kts | 172° |
| 2026-04-26 12:46 | 37.23181 | 23.90970 | 24630 ft | 475 kts | 172° |
| 2026-04-26 12:46 | 37.19908 | 23.91492 | 24208 ft | 472 kts | 172° |
| 2026-04-26 12:47 | 37.16665 | 23.92005 | 23797 ft | 468 kts | 172° |
| 2026-04-26 12:47 | 37.13442 | 23.92513 | 23346 ft | 465 kts | 172° |
| 2026-04-26 12:47 | 37.10238 | 23.93018 | 22858 ft | 462 kts | 172° |
| 2026-04-26 12:47 | 37.07057 | 23.93521 | 22379 ft | 459 kts | 172° |
| 2026-04-26 12:48 | 37.03894 | 23.94024 | 21908 ft | 456 kts | 172° |
| 2026-04-26 12:48 | 37.00755 | 23.94521 | 21444 ft | 453 kts | 172° |
| 2026-04-26 12:48 | 36.97637 | 23.95013 | 20988 ft | 451 kts | 172° |
| 2026-04-26 12:48 | 36.94530 | 23.95497 | 20540 ft | 448 kts | 172° |
| 2026-04-26 12:49 | 36.91450 | 23.95976 | 20096 ft | 445 kts | 172° |
| 2026-04-26 12:49 | 36.88384 | 23.96456 | 19662 ft | 442 kts | 172° |
| 2026-04-26 12:49 | 36.85337 | 23.96935 | 19224 ft | 440 kts | 172° |
| 2026-04-26 12:49 | 36.82311 | 23.97413 | 18892 ft | 438 kts | 172° |
| 2026-04-26 12:50 | 36.79331 | 23.97887 | 18688 ft | 437 kts | 172° |
| 2026-04-26 12:50 | 36.76314 | 23.98367 | 18479 ft | 436 kts | 172° |
| 2026-04-26 12:50 | 36.73310 | 23.98841 | 18250 ft | 435 kts | 172° |
| 2026-04-26 12:50 | 36.70319 | 23.99306 | 18023 ft | 433 kts | 172° |
| 2026-04-26 12:51 | 36.67332 | 23.99771 | 17785 ft | 431 kts | 172° |
| 2026-04-26 12:51 | 36.64356 | 24.00222 | 17547 ft | 430 kts | 172° |
| 2026-04-26 12:51 | 36.61391 | 24.00663 | 17286 ft | 428 kts | 172° |
| 2026-04-26 12:51 | 36.58436 | 24.01101 | 17020 ft | 426 kts | 172° |
| 2026-04-26 12:52 | 36.55498 | 24.01535 | 16794 ft | 425 kts | 172° |
| 2026-04-26 12:52 | 36.52567 | 24.01968 | 16560 ft | 423 kts | 172° |
| 2026-04-26 12:52 | 36.49649 | 24.02401 | 16331 ft | 422 kts | 172° |
| 2026-04-26 12:52 | 36.46742 | 24.02833 | 16109 ft | 420 kts | 172° |
| 2026-04-26 12:53 | 36.43843 | 24.03264 | 15888 ft | 419 kts | 172° |
| 2026-04-26 12:53 | 36.40954 | 24.03696 | 15661 ft | 417 kts | 172° |
| 2026-04-26 12:53 | 36.38075 | 24.04126 | 15434 ft | 416 kts | 172° |
| 2026-04-26 12:53 | 36.35208 | 24.04555 | 15238 ft | 414 kts | 172° |
| 2026-04-26 12:54 | 36.32355 | 24.04983 | 15007 ft | 413 kts | 172° |
| 2026-04-26 12:54 | 36.29546 | 24.05405 | 14786 ft | 411 kts | 172° |
| 2026-04-26 12:54 | 36.26708 | 24.05831 | 14582 ft | 410 kts | 172° |
| 2026-04-26 12:54 | 36.23878 | 24.06257 | 14364 ft | 409 kts | 172° |
| 2026-04-26 12:55 | 36.21074 | 24.06680 | 14153 ft | 407 kts | 172° |
| 2026-04-26 12:55 | 36.18269 | 24.07106 | 13951 ft | 405 kts | 172° |
| 2026-04-26 12:55 | 36.15478 | 24.07535 | 13732 ft | 403 kts | 172° |
| 2026-04-26 12:55 | 36.12700 | 24.07962 | 13500 ft | 401 kts | 172° |
| 2026-04-26 12:56 | 36.09932 | 24.08380 | 13258 ft | 400 kts | 172° |
| 2026-04-26 12:56 | 36.07177 | 24.08794 | 13025 ft | 398 kts | 172° |
| 2026-04-26 12:56 | 36.04435 | 24.09203 | 12793 ft | 396 kts | 172° |
| 2026-04-26 12:56 | 36.01707 | 24.09607 | 12561 ft | 394 kts | 172° |
| 2026-04-26 12:57 | 35.98990 | 24.10007 | 12329 ft | 392 kts | 172° |
| 2026-04-26 12:57 | 35.96289 | 24.10401 | 12107 ft | 390 kts | 172° |
| 2026-04-26 12:57 | 35.93601 | 24.10790 | 11837 ft | 388 kts | 172° |
| 2026-04-26 12:58 | 35.88359 | 24.11537 | 11097 ft | 372 kts | 172° |
| 2026-04-26 12:58 | 35.85819 | 24.11891 | 10732 ft | 362 kts | 172° |
| 2026-04-26 12:58 | 35.83346 | 24.12230 | 10367 ft | 354 kts | 172° |
| 2026-04-26 12:58 | 35.80927 | 24.12555 | 10011 ft | 345 kts | 172° |
| 2026-04-26 12:59 | 35.78563 | 24.12868 | 9626 ft | 338 kts | 172° |
| 2026-04-26 12:59 | 35.76244 | 24.13174 | 9235 ft | 332 kts | 172° |
| 2026-04-26 12:59 | 35.73968 | 24.13458 | 8764 ft | 324 kts | 173° |
| 2026-04-26 12:59 | 35.71808 | 24.13951 | 8278 ft | 312 kts | 156° |
| 2026-04-26 13:00 | 35.69995 | 24.15347 | 7769 ft | 307 kts | 137° |
| 2026-04-26 13:00 | 35.68394 | 24.17080 | 7277 ft | 306 kts | 135° |
| 2026-04-26 13:00 | 35.66811 | 24.18842 | 6789 ft | 306 kts | 135° |
| 2026-04-26 13:00 | 35.65249 | 24.20574 | 6535 ft | 298 kts | 135° |
| 2026-04-26 13:01 | 35.63703 | 24.22257 | 6334 ft | 296 kts | 135° |
| 2026-04-26 13:01 | 35.62163 | 24.23930 | 6139 ft | 295 kts | 135° |
| 2026-04-26 13:01 | 35.60630 | 24.25598 | 5934 ft | 291 kts | 135° |
| 2026-04-26 13:01 | 35.59145 | 24.27210 | 5728 ft | 280 kts | 135° |
| 2026-04-26 13:02 | 35.57744 | 24.28817 | 5526 ft | 271 kts | 128° |
| 2026-04-26 13:02 | 35.56645 | 24.30663 | 5328 ft | 266 kts | 117° |
| 2026-04-26 13:02 | 35.55812 | 24.32677 | 5110 ft | 264 kts | 111° |
| 2026-04-26 13:02 | 35.55069 | 24.34701 | 4867 ft | 262 kts | 110° |
| 2026-04-26 13:03 | 35.54317 | 24.36774 | 4722 ft | 263 kts | 110° |
| 2026-04-26 13:03 | 35.53588 | 24.38796 | 4589 ft | 263 kts | 110° |
| 2026-04-26 13:03 | 35.52857 | 24.40835 | 4284 ft | 256 kts | 110° |
| 2026-04-26 13:03 | 35.52147 | 24.42756 | 4027 ft | 239 kts | 117° |
| 2026-04-26 13:04 | 35.51022 | 24.44147 | 3884 ft | 229 kts | 151° |
| 2026-04-26 13:04 | 35.49499 | 24.44591 | 3752 ft | 226 kts | 186° |
| 2026-04-26 13:04 | 35.48062 | 24.43945 | 3622 ft | 220 kts | 222° |
| 2026-04-26 13:04 | 35.47088 | 24.42555 | 3507 ft | 213 kts | 247° |
| 2026-04-26 13:05 | 35.46515 | 24.40879 | 3393 ft | 212 kts | 254° |
| 2026-04-26 13:05 | 35.46042 | 24.39170 | 3282 ft | 210 kts | 259° |
| 2026-04-26 13:05 | 35.45953 | 24.37421 | 3241 ft | 206 kts | 283° |
| 2026-04-26 13:05 | 35.46384 | 24.35760 | 3223 ft | 204 kts | 295° |
| 2026-04-26 13:06 | 35.46918 | 24.34141 | 3145 ft | 205 kts | 295° |
| 2026-04-26 13:06 | 35.47445 | 24.32534 | 3070 ft | 199 kts | 295° |
| 2026-04-26 13:06 | 35.47955 | 24.30976 | 2876 ft | 195 kts | 295° |
| 2026-04-26 13:06 | 35.48458 | 24.29441 | 2647 ft | 193 kts | 295° |
| 2026-04-26 13:07 | 35.48949 | 24.27939 | 2404 ft | 185 kts | 294° |
| 2026-04-26 13:07 | 35.49411 | 24.26520 | 2170 ft | 173 kts | 294° |
| 2026-04-26 13:07 | 35.49845 | 24.25192 | 1924 ft | 163 kts | 294° |
| 2026-04-26 13:07 | 35.50249 | 24.23954 | 1718 ft | 149 kts | 294° |
| 2026-04-26 13:08 | 35.50619 | 24.22819 | 1516 ft | 139 kts | 294° |
| 2026-04-26 13:08 | 35.50970 | 24.21743 | 1350 ft | 133 kts | 294° |
| 2026-04-26 13:08 | 35.51313 | 24.20693 | 1174 ft | 132 kts | 293° |
| 2026-04-26 13:08 | 35.51653 | 24.19661 | 1075 ft | 130 kts | 293° |
| 2026-04-26 13:09 | 35.51980 | 24.18624 | 823 ft | 128 kts | 292° |
| 2026-04-26 13:09 | 35.52316 | 24.17611 | 660 ft | 129 kts | 293° |
| 2026-04-26 13:09 | 35.52649 | 24.16605 | 523 ft | 128 kts | 291° |
| 2026-04-26 13:09 | 35.52946 | 24.15673 | 491 ft | 99 kts | 292° |
| 2026-04-26 13:10 | 35.53143 | 24.15070 | 488 ft | 57 kts | 292° |
| 2026-04-26 13:10 | 35.53260 | 24.14702 | 494 ft | 40 kts | 291° |
| 2026-04-26 13:10 | 35.53353 | 24.14411 | 489 ft | 34 kts | 292° |
| 2026-04-26 13:10 | 35.53433 | 24.14259 | 498 ft | 11 kts | 1° |
| 2026-04-26 13:11 | 35.53501 | 24.14292 | 494 ft | 15 kts | 19° |
| 2026-04-26 13:11 | 35.53588 | 24.14284 | 494 ft | 14 kts | 299° |
| 2026-04-26 13:11 | 35.53630 | 24.14151 | 496 ft | 18 kts | 291° |
| 2026-04-26 13:11 | 35.53678 | 24.14003 | 498 ft | 11 kts | 291° |
| 2026-04-26 13:12 | 35.53744 | 24.13994 | 498 ft | 10 kts | 22° |
| 2026-04-26 13:12 | 35.53802 | 24.13992 | 492 ft | 8 kts | 305° |
| 2026-04-26 13:12 | 35.53829 | 24.13990 | 496 ft | 4 kts | 29° |
| 2026-04-26 13:12 | 35.53852 | 24.14002 | 495 ft | 3 kts | 21° |
| 2026-04-26 13:13 | 35.53873 | 24.14011 | 498 ft | 3 kts | 20° |
| 2026-04-26 13:13 | 35.53892 | 24.14020 | 494 ft | 0 kts | 20° |
| 2026-04-26 13:14 | 35.53889 | 24.14019 | 499 ft | 0 kts | 21° |